Time;durP1;ratioP1;P1;durP2;ratioP2;P2;SDS_P1;SDS_P2;PMS_P1;PMS_P2;Temp;Humidity;BMP_temperature;BMP_pressure;BME280_temperature;BME280_humidity;BME280_pressure;Samples;Min_cycle;Max_cycle;Signal;HPM_P1;HPM_P2
2023/01/11 00:01:32;;;;;;;;;21.00;18.33;;;;;7.02;68.97;100021.72;5074303;28;45351;-76
2023/01/11 00:03:58;;;;;;;;;20.00;16.67;;;;;6.97;69.15;100019.16;5090219;27;45469;-76
2023/01/11 00:06:23;;;;;;;;;21.33;15.67;;;;;6.93;69.23;100023.56;5059174;28;46011;-76
2023/01/11 00:08:48;;;;;;;;;17.00;17.00;;;;;6.91;69.52;100021.84;5073186;28;45421;-76
2023/01/11 00:11:15;;;;;;;;;19.00;17.00;;;;;6.90;69.51;100020.09;5090491;27;45375;-76
2023/01/11 00:13:42;;;;;;;;;18.00;17.00;;;;;6.86;69.87;100018.41;5074393;28;45574;-76
2023/01/11 00:16:16;;;;;;;;;20.00;15.00;;;;;6.86;69.73;100021.91;5074417;28;45482;-76
2023/01/11 00:18:42;;;;;;;;;25.00;20.00;;;;;6.83;70.22;100016.69;5074090;28;45528;-76
2023/01/11 00:21:07;;;;;;;;;18.33;18.33;;;;;6.81;70.06;100009.72;5074145;28;45550;-77
2023/01/11 00:23:35;;;;;;;;;26.67;20.67;;;;;6.81;70.21;100015.84;5074148;27;45371;-76
2023/01/11 00:26:05;;;;;;;;;23.33;19.33;;;;;6.78;70.19;100010.63;5072657;27;45551;-76
2023/01/11 00:28:31;;;;;;;;;24.33;22.00;;;;;6.78;70.16;100008.00;5075687;27;45747;-77
2023/01/11 00:30:57;;;;;;;;;17.00;15.67;;;;;6.73;70.11;100001.94;5078006;27;45418;-76
2023/01/11 00:33:22;;;;;;;;;22.33;16.00;;;;;6.73;69.98;100004.53;5077805;27;45427;-76
2023/01/11 00:35:51;;;;;;;;;23.00;17.67;;;;;6.71;69.99;100003.69;5077770;28;45466;-77
2023/01/11 00:38:42;;;;;;;;;17.00;16.67;;;;;6.69;70.09;99996.75;5077537;27;45509;-77
2023/01/11 00:49:15;;;;;;;;;15.33;10.00;;;;;6.63;68.92;99988.06;5077408;28;45523;-76
2023/01/11 00:51:41;;;;;;;;;14.00;10.67;;;;;6.63;68.57;99993.31;5077294;27;45329;-77
2023/01/11 00:54:06;;;;;;;;;17.00;15.00;;;;;6.63;69.39;99998.53;5077927;27;45393;-76
2023/01/11 00:56:31;;;;;;;;;17.33;13.00;;;;;6.60;69.58;99998.56;5077179;27;45621;-76
2023/01/11 00:58:57;;;;;;;;;17.33;13.00;;;;;6.59;70.25;100003.81;5077363;27;46449;-76
2023/01/11 01:01:22;;;;;;;;;19.00;16.00;;;;;6.57;70.45;100003.84;5077433;27;45329;-78
2023/01/11 01:03:48;;;;;;;;;20.33;17.00;;;;;6.59;70.60;100009.94;5077611;28;45452;-77
2023/01/11 01:06:13;;;;;;;;;17.00;17.00;;;;;6.53;70.79;99993.44;5077181;27;45377;-78
2023/01/11 01:08:39;;;;;;;;;20.67;14.67;;;;;6.48;70.75;99992.59;5077036;28;45542;-78
2023/01/11 01:11:04;;;;;;;;;17.33;16.00;;;;;6.46;71.00;99987.38;5077189;27;45387;-78
2023/01/11 01:16:27;;;;;;;;;20.67;17.00;;;;;6.33;71.29;99987.50;5043537;28;45425;-78
2023/01/11 01:18:55;;;;;;;;;18.00;14.00;;;;;6.27;71.38;99981.44;5072513;28;46372;-78
2023/01/11 01:21:21;;;;;;;;;16.00;13.67;;;;;6.22;71.28;99983.22;5076477;28;45551;-78
2023/01/11 01:23:47;;;;;;;;;18.33;15.00;;;;;6.24;71.53;99988.44;5092621;27;45399;-77
2023/01/11 01:26:12;;;;;;;;;9.67;8.00;;;;;6.21;71.63;99983.22;5076215;28;45482;-75
2023/01/11 01:28:38;;;;;;;;;16.67;15.00;;;;;6.18;71.61;99980.66;5075946;27;46430;-78
2023/01/11 01:31:03;;;;;;;;;19.00;15.33;;;;;6.13;71.83;99979.81;5077219;27;45367;-77
2023/01/11 01:33:28;;;;;;;;;16.67;16.67;;;;;6.09;71.78;99971.13;5077496;27;45454;-77
2023/01/11 01:35:54;;;;;;;;;18.00;17.00;;;;;6.09;71.43;99968.50;5077178;28;45494;-77
2023/01/11 01:38:19;;;;;;;;;17.67;16.67;;;;;6.04;71.66;99959.81;5075837;28;45386;-77
2023/01/11 01:40:46;;;;;;;;;19.00;15.00;;;;;6.04;71.99;99967.66;5076672;27;45415;-77
2023/01/11 01:43:15;;;;;;;;;15.67;14.00;;;;;5.99;72.11;99963.34;5076443;27;45513;-77
2023/01/11 01:45:42;;;;;;;;;14.67;13.67;;;;;6.01;72.12;99967.72;5076690;27;45444;-78
2023/01/11 01:48:22;;;;;;;;;15.00;13.67;;;;;5.97;71.97;99959.88;5076108;28;46484;-77
2023/01/11 01:50:56;;;;;;;;;16.67;13.67;;;;;5.93;72.32;99959.03;5076403;27;45440;-78
2023/01/11 01:53:34;;;;;;;;;13.33;13.33;;;;;5.95;72.13;99959.91;5076484;28;45502;-77
2023/01/11 01:56:02;;;;;;;;;15.00;14.00;;;;;5.93;72.11;99962.53;5091794;27;45508;-78
2023/01/11 01:58:34;;;;;;;;;13.67;13.00;;;;;5.90;72.24;99949.44;5075608;27;45500;-78
2023/01/11 02:01:45;;;;;;;;;18.67;14.33;;;;;5.87;72.29;99944.19;5092082;27;45537;-78
2023/01/11 02:03:47;;;;;;;;;15.00;14.00;;;;;5.85;72.62;99946.00;5076703;27;45438;-77
2023/01/11 02:06:12;;;;;;;;;14.00;14.00;;;;;5.88;72.14;99955.53;5075864;27;45596;-77
2023/01/11 02:08:42;;;;;;;;;14.67;13.67;;;;;5.88;72.45;99959.06;5076062;27;45399;-77
2023/01/11 02:11:31;;;;;;;;;12.67;12.00;;;;;5.86;72.77;99954.72;5076113;28;45523;-77
2023/01/11 02:14:07;;;;;;;;;16.33;16.33;;;;;5.87;72.23;99961.66;5076287;27;45358;-77
2023/01/11 02:16:33;;;;;;;;;12.67;12.67;;;;;5.86;72.15;99949.47;5076369;28;45494;-76
2023/01/11 02:19:00;;;;;;;;;15.00;12.00;;;;;5.83;72.22;99942.53;5076029;28;45371;-77
2023/01/11 02:21:40;;;;;;;;;11.67;11.67;;;;;5.82;71.96;99927.69;5076118;28;45426;-77
2023/01/11 02:24:14;;;;;;;;;12.33;12.33;;;;;5.87;72.00;99944.19;5076064;28;45446;-77
2023/01/11 02:26:46;;;;;;;;;15.00;9.33;;;;;5.87;72.16;99938.97;5075466;27;45451;-77
2023/01/11 02:29:28;;;;;;;;;12.67;11.67;;;;;5.85;72.17;99935.53;5091400;27;47183;-77
2023/01/11 02:32:00;;;;;;;;;14.00;14.00;;;;;5.84;72.37;99936.41;5091295;27;45337;-77
2023/01/11 02:34:34;;;;;;;;;13.33;12.00;;;;;5.84;72.28;99931.16;5075953;27;45508;-77
2023/01/11 02:37:15;;;;;;;;;15.67;13.00;;;;;5.82;72.49;99927.69;5075845;27;45573;-77
2023/01/11 02:40:01;;;;;;;;;14.67;13.67;;;;;5.80;72.40;99920.72;5091290;27;45699;-77
2023/01/11 02:45:53;;;;;;;;;15.33;13.33;;;;;5.73;72.96;99916.41;5055105;28;45562;-77
2023/01/11 02:48:41;;;;;;;;;16.33;14.00;;;;;5.76;72.77;99922.50;5059361;27;45421;-77
2023/01/11 02:51:16;;;;;;;;;15.00;15.00;;;;;5.74;73.05;99915.53;5073007;28;48011;-76
2023/01/11 02:53:53;;;;;;;;;13.00;13.00;;;;;5.71;73.38;99912.94;5075689;28;45268;-77
2023/01/11 02:56:24;;;;;;;;;17.33;14.33;;;;;5.70;73.32;99912.06;5075261;27;45330;-77
2023/01/11 02:59:00;;;;;;;;;16.00;14.67;;;;;5.70;73.39;99908.63;5075817;27;45412;-77
2023/01/11 03:01:26;;;;;;;;;14.00;14.00;;;;;5.68;73.37;99897.28;5075473;28;46164;-77
2023/01/11 03:03:52;;;;;;;;;14.00;13.00;;;;;5.67;73.39;99896.44;5074087;28;45414;-77
2023/01/11 03:06:33;;;;;;;;;17.67;13.67;;;;;5.70;73.43;99891.16;5074700;27;45373;-77
2023/01/11 03:09:14;;;;;;;;;14.67;14.00;;;;;5.71;73.32;99886.78;5074967;27;45481;-77
2023/01/11 03:14:51;;;;;;;;;14.00;13.33;;;;;5.68;73.31;99890.31;5064522;28;45409;-76
2023/01/11 03:17:41;;;;;;;;;13.33;12.00;;;;;5.67;73.42;99879.88;5075272;27;45580;-77
2023/01/11 03:20:17;;;;;;;;;13.67;13.67;;;;;5.63;73.24;99892.09;5075176;27;45697;-77
2023/01/11 03:22:49;;;;;;;;;13.00;13.00;;;;;5.63;73.06;99892.09;5077304;27;45474;-77
2023/01/11 03:25:29;;;;;;;;;14.00;13.00;;;;;5.61;73.16;99894.72;5075251;27;45387;-77
2023/01/11 03:28:00;;;;;;;;;13.67;13.00;;;;;5.58;73.31;99899.97;5074755;27;45376;-77
2023/01/11 03:30:58;;;;;;;;;12.67;12.67;;;;;5.55;73.22;99907.81;5090735;27;45493;-77
2023/01/11 03:33:55;;;;;;;;;15.33;12.00;;;;;5.50;73.51;99909.63;5074719;27;46268;-77
2023/01/11 03:36:31;;;;;;;;;15.67;12.67;;;;;5.45;73.46;99907.91;5074698;28;45427;-76
2023/01/11 03:39:07;;;;;;;;;14.33;14.00;;;;;5.39;73.88;99913.19;5075316;27;45483;-77
2023/01/11 03:41:38;;;;;;;;;17.33;14.00;;;;;5.39;73.69;99916.66;5074201;27;45374;-77
2023/01/11 03:44:07;;;;;;;;;19.00;17.33;;;;;5.39;73.75;99921.88;5074421;28;45715;-77
2023/01/11 03:46:37;;;;;;;;;15.67;14.00;;;;;5.34;73.99;99909.75;5074458;27;45317;-77
2023/01/11 03:49:15;;;;;;;;;14.67;13.33;;;;;5.34;73.90;99918.47;5074786;28;45400;-77
2023/01/11 03:51:44;;;;;;;;;14.67;12.00;;;;;5.36;74.08;99926.28;5074313;27;45384;-77
2023/01/11 03:54:18;;;;;;;;;16.00;14.00;;;;;5.33;74.39;99924.56;5074008;28;46308;-77
2023/01/11 03:57:04;;;;;;;;;15.00;14.67;;;;;5.30;74.33;99919.34;5061091;28;45513;-77
2023/01/11 03:59:31;;;;;;;;;22.00;17.33;;;;;5.31;74.26;99928.06;5074784;27;45376;-77
2023/01/11 04:01:57;;;;;;;;;13.00;12.00;;;;;5.28;74.24;99923.72;5090303;27;45933;-77
2023/01/11 04:04:23;;;;;;;;;23.00;18.67;;;;;5.27;74.45;99924.59;5074497;27;46273;-77
2023/01/11 04:06:48;;;;;;;;;18.33;13.67;;;;;5.28;74.47;99922.84;5074092;27;45545;-77
2023/01/11 04:09:19;;;;;;;;;11.00;9.67;;;;;5.25;74.45;99919.38;5074368;27;45552;-77
2023/01/11 04:11:45;;;;;;;;;18.67;15.33;;;;;5.20;74.05;99915.91;5074465;28;45378;-77
2023/01/11 04:14:10;;;;;;;;;18.67;14.33;;;;;5.19;74.52;99913.31;5073986;28;45526;-77
2023/01/11 04:16:36;;;;;;;;;18.00;14.00;;;;;5.14;74.73;99912.47;5074320;28;45419;-77
2023/01/11 04:19:01;;;;;;;;;17.33;15.67;;;;;5.14;74.70;99905.50;5074272;27;45813;-77
2023/01/11 04:21:27;;;;;;;;;15.67;14.00;;;;;5.08;74.88;99895.06;5074372;27;45535;-77
2023/01/11 04:23:53;;;;;;;;;11.67;11.67;;;;;5.07;74.81;99893.34;5074110;28;46732;-77
2023/01/11 04:26:21;;;;;;;;;13.33;12.00;;;;;5.04;75.00;99895.97;5073490;28;45506;-77
2023/01/11 04:28:47;;;;;;;;;17.00;12.00;;;;;5.02;75.30;99891.66;5074151;28;45397;-77
2023/01/11 04:31:12;;;;;;;;;15.67;13.67;;;;;5.01;75.31;99889.91;5074311;27;45543;-77
2023/01/11 04:33:38;;;;;;;;;15.33;15.33;;;;;5.00;75.25;99886.41;5073973;28;45492;-77
2023/01/11 04:36:08;;;;;;;;;14.00;14.00;;;;;5.00;75.49;99883.81;5074045;27;45458;-77
2023/01/11 04:38:34;;;;;;;;;15.33;13.00;;;;;4.99;75.32;99889.03;5074157;27;45482;-77
2023/01/11 04:43:43;;;;;;;;;10.67;10.67;;;;;4.97;75.36;99886.44;5073737;28;45495;-77
2023/01/11 04:46:12;;;;;;;;;15.67;13.00;;;;;4.98;75.65;99882.06;5073402;28;45508;-75
2023/01/11 04:48:38;;;;;;;;;19.00;17.00;;;;;4.99;75.65;99889.91;5074407;28;45299;-78
2023/01/11 04:51:05;;;;;;;;;21.33;18.00;;;;;4.99;75.63;99897.75;5073445;28;45309;-77
2023/01/11 04:53:31;;;;;;;;;14.67;14.67;;;;;4.98;75.53;99890.78;5072051;28;45391;-78
2023/01/11 04:56:00;;;;;;;;;16.00;13.00;;;;;4.98;75.70;99875.09;5073559;27;45752;-78
2023/01/11 04:58:27;;;;;;;;;14.67;13.00;;;;;4.99;75.37;99882.06;5073721;27;45416;-78
2023/01/11 05:00:52;;;;;;;;;14.33;12.67;;;;;5.01;75.31;99880.31;5073843;27;45429;-77
2023/01/11 05:03:17;;;;;;;;;15.33;13.33;;;;;4.99;75.45;99884.69;5073523;27;45506;-78
2023/01/11 05:05:43;;;;;;;;;20.00;15.00;;;;;5.05;75.54;99886.38;5073367;28;45363;-77
2023/01/11 05:08:08;;;;;;;;;14.33;14.33;;;;;5.07;75.10;99887.25;5072487;28;45794;-78
2023/01/11 05:10:34;;;;;;;;;17.33;13.67;;;;;5.04;75.13;99882.88;5072206;28;45699;-77
2023/01/11 05:12:59;;;;;;;;;15.67;12.00;;;;;5.06;74.95;99894.22;5073702;27;46091;-77
2023/01/11 05:15:24;;;;;;;;;11.00;11.00;;;;;5.05;74.80;99878.53;5076903;27;45368;-77
2023/01/11 05:17:50;;;;;;;;;11.00;9.00;;;;;5.09;74.73;99878.50;5077294;27;45891;-78
2023/01/11 05:20:15;;;;;;;;;11.00;8.00;;;;;5.08;74.74;99881.13;5075642;28;45570;-77
2023/01/11 05:22:41;;;;;;;;;14.00;10.67;;;;;5.11;74.48;99889.84;5076816;27;45631;-77
2023/01/11 05:25:07;;;;;;;;;12.67;10.00;;;;;5.10;74.22;99877.63;5076973;27;45313;-78
2023/01/11 05:27:32;;;;;;;;;17.00;11.33;;;;;5.11;74.38;99863.69;5076720;27;45480;-78
2023/01/11 05:29:57;;;;;;;;;11.33;11.33;;;;;5.07;74.45;99867.19;5076481;27;45360;-78
2023/01/11 05:32:23;;;;;;;;;9.00;8.00;;;;;5.08;74.03;99855.00;5075811;27;46242;-78
2023/01/11 05:34:48;;;;;;;;;12.67;9.00;;;;;5.07;74.01;99859.34;5075776;27;45452;-78
2023/01/11 05:37:14;;;;;;;;;13.00;11.00;;;;;5.09;74.04;99860.22;5076524;27;45431;-76
2023/01/11 05:39:39;;;;;;;;;11.00;8.00;;;;;5.09;74.18;99859.34;5075927;28;45530;-77
2023/01/11 05:42:04;;;;;;;;;10.33;8.33;;;;;5.05;74.00;99855.00;5075289;28;46354;-78
2023/01/11 05:47:14;;;;;;;;;10.33;7.00;;;;;5.05;74.22;99841.94;5076585;28;45426;-78
2023/01/11 05:49:39;;;;;;;;;9.67;8.00;;;;;5.07;73.94;99853.25;5075866;27;45502;-78
2023/01/11 05:52:05;;;;;;;;;11.00;8.67;;;;;5.05;74.19;99837.59;5075840;27;45563;-78
2023/01/11 05:54:30;;;;;;;;;11.00;9.33;;;;;5.01;73.88;99832.41;5075579;27;45478;-78
2023/01/11 05:56:56;;;;;;;;;11.00;8.00;;;;;5.01;73.93;99837.66;5076414;28;45839;-78
2023/01/11 05:59:21;;;;;;;;;6.00;6.00;;;;;4.99;73.84;99845.50;5076181;27;45571;-78
2023/01/11 06:01:47;;;;;;;;;10.33;10.00;;;;;5.05;73.72;99847.19;5076098;27;46482;-78
2023/01/11 06:04:13;;;;;;;;;7.67;6.33;;;;;4.99;73.77;99832.44;5076151;27;45326;-78
2023/01/11 06:06:39;;;;;;;;;9.00;6.00;;;;;5.05;73.27;99844.56;5091807;27;45514;-76
2023/01/11 06:09:04;;;;;;;;;10.67;6.00;;;;;5.01;73.27;99829.81;5091398;27;45597;-76
2023/01/11 06:11:30;;;;;;;;;6.00;6.00;;;;;5.04;73.01;99848.91;5075287;28;46206;-78
2023/01/11 06:13:55;;;;;;;;;5.67;5.67;;;;;5.03;72.69;99838.47;5075987;28;45476;-78
2023/01/11 06:16:22;;;;;;;;;4.00;4.00;;;;;5.01;72.46;99833.28;5075675;27;45314;-78
2023/01/11 06:18:49;;;;;;;;;3.00;3.00;;;;;5.02;72.36;99835.03;5075690;28;45462;-78
2023/01/11 06:21:16;;;;;;;;;8.67;6.00;;;;;4.99;72.35;99831.56;5074811;27;46469;-77
2023/01/11 06:23:44;;;;;;;;;6.00;3.67;;;;;5.04;72.06;99832.38;5075459;27;45441;-77
2023/01/11 06:26:13;;;;;;;;;6.33;6.33;;;;;4.99;72.45;99823.72;5074743;27;45363;-78
2023/01/11 06:28:39;;;;;;;;;7.67;6.00;;;;;5.05;72.36;99842.81;5074721;28;45367;-78
2023/01/11 06:31:05;;;;;;;;;8.00;7.33;;;;;5.04;72.62;99837.59;5090327;27;47528;-78
2023/01/11 06:33:31;;;;;;;;;13.33;13.33;;;;;5.00;73.77;99833.28;5075423;28;45502;-78
2023/01/11 06:35:57;;;;;;;;;10.33;9.00;;;;;4.95;74.13;99837.66;5074957;27;45544;-77
2023/01/11 06:38:23;;;;;;;;;12.67;12.00;;;;;4.89;74.52;99841.19;5075275;27;45574;-77
2023/01/11 06:40:57;;;;;;;;;17.00;12.33;;;;;4.81;75.06;99840.38;5074764;28;45525;-78
2023/01/11 06:43:24;;;;;;;;;14.33;10.67;;;;;4.79;75.23;99834.28;5074999;28;45418;-77
2023/01/11 06:45:49;;;;;;;;;13.00;12.67;;;;;4.73;75.51;99832.56;5074598;27;45390;-77
2023/01/11 06:48:16;;;;;;;;;13.33;13.00;;;;;4.71;75.57;99825.59;5074655;27;45329;-78
2023/01/11 06:50:42;;;;;;;;;17.33;12.00;;;;;4.65;75.80;99815.22;5074384;27;46684;-78
2023/01/11 06:53:07;;;;;;;;;12.00;12.00;;;;;4.63;75.83;99817.81;5074535;28;45479;-78
2023/01/11 06:55:33;;;;;;;;;12.67;9.00;;;;;4.54;76.03;99813.50;5074235;28;45364;-79
2023/01/11 06:57:58;;;;;;;;;13.67;13.33;;;;;4.59;76.15;99818.69;5074063;27;45409;-77
2023/01/11 07:00:24;;;;;;;;;11.00;11.00;;;;;4.55;76.36;99814.38;5072994;28;47844;-76
2023/01/11 07:02:50;;;;;;;;;11.67;8.67;;;;;4.54;76.03;99818.72;5074612;28;45454;-79
2023/01/11 07:05:16;;;;;;;;;8.67;7.67;;;;;4.54;75.92;99812.63;5074588;28;45552;-78
2023/01/11 07:07:42;;;;;;;;;9.00;8.00;;;;;4.53;76.21;99819.59;5073963;28;45427;-78
2023/01/11 07:10:11;;;;;;;;;12.00;8.33;;;;;4.53;76.01;99824.81;5074497;27;45545;-79
2023/01/11 07:12:36;;;;;;;;;9.67;8.00;;;;;4.53;76.27;99822.19;5074198;28;45384;-79
2023/01/11 07:15:08;;;;;;;;;17.00;15.00;;;;;4.52;76.01;99815.25;5074732;28;45315;-78
2023/01/11 07:17:33;;;;;;;;;9.33;7.00;;;;;4.56;76.03;99827.41;5074483;27;45390;-78
2023/01/11 07:19:59;;;;;;;;;15.67;9.00;;;;;4.56;75.57;99822.19;5074200;27;46297;-77
2023/01/11 07:22:26;;;;;;;;;12.00;9.33;;;;;4.61;76.04;99829.16;5073363;27;45524;-78
2023/01/11 07:24:51;;;;;;;;;14.00;11.00;;;;;4.61;75.93;99816.09;5073652;28;45421;-78
2023/01/11 07:27:19;;;;;;;;;12.00;11.67;;;;;4.66;75.85;99824.78;5073420;27;45635;-78
2023/01/11 07:29:45;;;;;;;;;13.00;12.00;;;;;4.66;76.35;99825.66;5073996;27;46285;-77
2023/01/11 07:32:11;;;;;;;;;11.00;11.00;;;;;4.69;76.37;99823.00;5073855;27;45705;-79
2023/01/11 07:34:36;;;;;;;;;16.33;13.00;;;;;4.73;76.11;99832.56;5073597;28;45468;-79
2023/01/11 07:37:08;;;;;;;;;13.33;9.67;;;;;4.74;76.25;99830.81;5073319;27;45454;-78
2023/01/11 07:39:34;;;;;;;;;10.67;8.33;;;;;4.74;76.33;99836.91;5074255;28;45593;-77
2023/01/11 07:44:47;;;;;;;;;22.67;16.67;;;;;4.73;76.34;99842.13;5074158;28;45406;-78
2023/01/11 07:47:12;;;;;;;;;15.67;13.00;;;;;4.72;76.16;99840.41;5073863;27;45398;-77
2023/01/11 07:49:38;;;;;;;;;15.67;12.67;;;;;4.73;76.63;99845.63;5073449;28;46458;-78
2023/01/11 07:52:03;;;;;;;;;15.00;13.67;;;;;4.73;76.53;99850.84;5073724;28;45372;-78
2023/01/11 07:54:29;;;;;;;;;14.67;13.67;;;;;4.75;76.40;99862.16;5073364;27;45258;-78
2023/01/11 07:56:55;;;;;;;;;18.00;16.00;;;;;4.77;76.50;99855.19;5073212;27;45303;-78
2023/01/11 07:59:21;;;;;;;;;15.67;13.00;;;;;4.83;76.21;99849.94;5074205;27;45361;-78
2023/01/11 08:01:47;;;;;;;;;13.33;13.33;;;;;4.85;76.04;99852.53;5089896;27;45426;-78
2023/01/11 08:04:13;;;;;;;;;25.00;22.67;;;;;4.85;76.37;99856.03;5073878;27;45494;-77
2023/01/11 08:06:39;;;;;;;;;22.00;16.33;;;;;4.87;76.13;99867.31;5073770;28;45432;-77
2023/01/11 08:09:05;;;;;;;;;17.33;16.67;;;;;4.90;76.00;99871.66;5073892;27;46178;-78
2023/01/11 08:16:59;;;;;;;;;12.00;12.00;;;;;4.99;76.21;99891.66;5073957;28;45409;-78
2023/01/11 08:19:24;;;;;;;;;16.33;13.33;;;;;5.04;75.75;99897.69;5073731;27;46319;-78
2023/01/11 08:21:50;;;;;;;;;13.67;13.00;;;;;5.03;75.78;99889.00;5073880;27;45500;-78
2023/01/11 08:24:16;;;;;;;;;12.67;12.00;;;;;5.13;75.72;99895.06;5074134;28;45411;-77
2023/01/11 08:26:44;;;;;;;;;13.33;12.33;;;;;5.16;75.94;99890.69;5073883;27;45598;-78
2023/01/11 08:29:10;;;;;;;;;23.67;16.00;;;;;5.21;75.84;99888.88;5058791;28;46941;-77
2023/01/11 08:31:36;;;;;;;;;17.67;16.33;;;;;5.30;75.66;99887.97;5073461;28;45423;-78
2023/01/11 08:34:01;;;;;;;;;18.33;18.33;;;;;5.38;75.46;99898.38;5073452;28;45446;-79
2023/01/11 08:36:27;;;;;;;;;20.33;17.67;;;;;5.43;75.50;99897.47;5072952;28;45556;-78
2023/01/11 08:38:54;;;;;;;;;20.67;19.00;;;;;5.48;75.28;99900.06;5073984;27;45530;-78
2023/01/11 08:41:20;;;;;;;;;24.00;22.00;;;;;5.48;75.10;99894.81;5072136;28;45399;-78
2023/01/11 08:43:46;;;;;;;;;22.67;19.33;;;;;5.55;75.01;99886.03;5073507;27;45521;-78
2023/01/11 08:46:11;;;;;;;;;27.00;24.00;;;;;5.59;75.10;99891.25;5073641;27;45496;-78
2023/01/11 08:48:37;;;;;;;;;24.33;21.67;;;;;5.64;75.06;99895.56;5074008;27;46025;-78
2023/01/11 08:51:02;;;;;;;;;23.67;22.00;;;;;5.67;74.93;99906.88;5076836;28;45386;-78
2023/01/11 08:53:28;;;;;;;;;23.00;19.33;;;;;5.69;75.04;99896.41;5077469;28;45373;-78
2023/01/11 08:55:53;;;;;;;;;20.00;18.33;;;;;5.75;74.64;99898.97;5076622;27;45533;-78
2023/01/11 08:58:20;;;;;;;;;18.67;16.67;;;;;5.81;74.48;99906.78;5076857;27;46506;-78
2023/01/11 09:00:46;;;;;;;;;24.00;18.00;;;;;5.88;74.08;99895.34;5076990;27;45402;-78
2023/01/11 09:03:12;;;;;;;;;18.67;17.33;;;;;5.92;74.17;99902.34;5076494;27;45376;-78
2023/01/11 09:05:38;;;;;;;;;17.00;16.33;;;;;5.98;73.92;99898.81;5077232;28;45350;-78
2023/01/11 09:08:05;;;;;;;;;19.67;16.67;;;;;6.07;73.56;99911.78;5077994;27;45458;-76
2023/01/11 09:10:30;;;;;;;;;18.33;15.33;;;;;6.10;73.46;99914.41;5078489;28;45431;-76
2023/01/11 09:12:56;;;;;;;;;18.67;17.33;;;;;6.15;73.11;99918.72;5077663;28;45407;-78
2023/01/11 09:15:23;;;;;;;;;17.67;13.00;;;;;6.18;72.98;99916.06;5076452;27;46303;-78
2023/01/11 09:17:49;;;;;;;;;16.33;14.33;;;;;6.16;72.77;99907.38;5075172;28;47812;-77
2023/01/11 09:20:15;;;;;;;;;19.33;16.33;;;;;6.20;73.04;99913.44;5076261;27;45404;-77
2023/01/11 09:22:45;;;;;;;;;18.33;15.67;;;;;6.22;72.50;99920.38;5075965;27;45519;-78
2023/01/11 09:25:11;;;;;;;;;16.67;16.67;;;;;6.24;72.54;99920.34;5074388;28;45549;-78
2023/01/11 09:27:36;;;;;;;;;16.00;14.00;;;;;6.27;72.76;99912.47;5075389;27;45526;-79
2023/01/11 09:30:02;;;;;;;;;14.33;14.33;;;;;6.34;72.59;99914.16;5075821;27;45506;-78
2023/01/11 09:32:28;;;;;;;;;14.67;14.00;;;;;6.37;72.59;99914.09;5075495;27;45461;-78
2023/01/11 09:34:56;;;;;;;;;22.67;17.67;;;;;6.43;72.37;99919.28;5076387;28;45541;-78
2023/01/11 09:37:22;;;;;;;;;19.00;17.33;;;;;6.54;72.07;99927.03;5076183;27;46508;-78
2023/01/11 09:39:49;;;;;;;;;14.33;13.67;;;;;6.56;72.13;99918.28;5076324;27;45492;-78
2023/01/11 09:42:33;;;;;;;;;21.33;17.33;;;;;6.71;71.78;99934.69;5075691;27;45576;-77
2023/01/11 09:45:11;;;;;;;;;16.33;16.00;;;;;6.82;71.58;99922.34;5075305;28;45542;-78
2023/01/11 09:48:10;;;;;;;;;20.00;17.00;;;;;6.91;71.12;99906.50;5075713;27;45540;-77
2023/01/11 09:50:42;;;;;;;;;19.33;15.33;;;;;7.01;70.91;99902.91;5076083;27;45408;-77
2023/01/11 09:53:34;;;;;;;;;21.33;16.33;;;;;7.05;70.78;99899.31;5075558;27;45559;-77
2023/01/11 09:56:04;;;;;;;;;18.00;15.00;;;;;7.18;70.56;99907.91;5074578;28;45561;-77
2023/01/11 09:58:39;;;;;;;;;16.67;13.33;;;;;7.29;70.03;99911.25;5075186;27;45441;-77
2023/01/11 10:01:19;;;;;;;;;16.33;15.00;;;;;7.39;70.16;99907.59;5091121;27;45418;-78
2023/01/11 10:04:02;;;;;;;;;19.33;17.67;;;;;7.51;69.61;99914.44;5075844;28;45471;-77
2023/01/11 10:06:54;;;;;;;;;14.33;11.33;;;;;7.63;69.68;99903.72;5062258;28;45502;-77
2023/01/11 10:09:40;;;;;;;;;16.00;15.00;;;;;7.77;68.87;99908.75;5091117;27;46724;-78
2023/01/11 10:12:05;;;;;;;;;17.67;15.67;;;;;7.87;68.75;99899.84;5075059;28;45390;-78
2023/01/11 10:14:49;;;;;;;;;19.00;17.00;;;;;7.97;68.60;99885.66;5090531;27;45493;-78
2023/01/11 10:17:29;;;;;;;;;12.67;11.33;;;;;8.04;68.14;99887.31;5075415;27;45517;-78
2023/01/11 10:20:10;;;;;;;;;18.00;15.33;;;;;8.04;68.07;99887.31;5075222;27;45676;-77
2023/01/11 10:22:42;;;;;;;;;19.00;17.67;;;;;8.12;67.64;99884.53;5091169;27;45464;-78
2023/01/11 10:25:23;;;;;;;;;20.67;19.33;;;;;8.20;67.71;99888.78;5075666;27;45364;-77
2023/01/11 10:27:59;;;;;;;;;20.33;18.00;;;;;8.29;67.40;99885.09;5074932;28;45330;-78
2023/01/11 10:31:06;;;;;;;;;26.67;25.00;;;;;8.32;67.23;99869.31;5074769;27;45645;-78
2023/01/11 10:36:50;;;;;;;;;23.33;22.00;;;;;8.52;67.05;99851.41;5074999;27;45427;-77
2023/01/11 10:39:54;;;;;;;;;21.00;19.33;;;;;8.62;66.96;99849.44;5054953;28;45445;-77
2023/01/11 10:42:24;;;;;;;;;37.00;30.33;;;;;8.67;66.51;99843.19;5074374;27;46516;-78
2023/01/11 10:45:28;;;;;;;;;26.33;26.33;;;;;8.80;66.22;99845.56;5074378;27;45462;-77
2023/01/11 10:48:06;;;;;;;;;19.00;15.67;;;;;8.88;66.07;99841.03;5038082;27;45634;-78
2023/01/11 10:50:47;;;;;;;;;18.00;16.00;;;;;8.90;65.96;99828.69;5074944;27;45427;-78
2023/01/11 10:53:42;;;;;;;;;20.00;18.00;;;;;9.00;65.47;99832.84;5088749;27;45535;-78
2023/01/11 10:56:28;;;;;;;;;20.67;18.33;;;;;9.10;65.40;99843.13;5074294;28;45402;-78
2023/01/11 10:59:26;;;;;;;;;26.00;21.33;;;;;9.18;65.04;99842.97;5075081;28;45438;-78
2023/01/11 11:02:24;;;;;;;;;19.33;16.33;;;;;9.27;65.05;99847.13;5040925;28;45449;-78
2023/01/11 11:05:16;;;;;;;;;19.33;16.33;;;;;9.33;64.48;99842.59;5037095;28;46449;-77
2023/01/11 11:07:44;;;;;;;;;18.67;14.67;;;;;9.38;64.29;99843.34;5073940;28;45575;-77
2023/01/11 11:10:22;;;;;;;;;13.67;12.33;;;;;9.43;63.95;99832.72;5074520;28;45400;-78
2023/01/11 11:13:15;;;;;;;;;10.50;10.50;;;;;9.45;64.03;99823.00;5072333;27;45564;-78
2023/01/11 11:15:53;;;;;;;;;11.50;11.00;;;;;9.53;63.70;99833.38;5073529;28;45668;-78
2023/01/11 11:18:19;;;;;;;;;9.50;8.25;;;;;9.54;63.30;99814.03;5074123;28;45482;-77
2023/01/11 11:20:45;;;;;;;;;6.75;6.75;;;;;9.61;63.02;99824.38;5074948;28;45494;-77
2023/01/11 11:23:17;;;;;;;;;8.00;6.50;;;;;9.64;62.87;99815.53;5073782;27;45490;-79
2023/01/11 11:25:49;;;;;;;;;10.00;7.25;;;;;9.68;62.80;99807.53;5073393;28;45655;-78
2023/01/11 11:28:14;;;;;;;;;5.75;5.75;;;;;9.77;62.27;99820.44;5073621;27;45417;-78
2023/01/11 11:30:45;;;;;;;;;6.75;5.25;;;;;9.82;62.00;99811.56;5073995;27;45337;-78
2023/01/11 11:33:37;;;;;;;;;7.00;7.00;;;;;9.87;61.49;99807.91;5073799;27;45506;-78
2023/01/11 11:36:08;;;;;;;;;10.00;7.00;;;;;9.91;61.83;99806.91;5074228;27;45655;-78
2023/01/11 11:38:39;;;;;;;;;13.75;13.25;;;;;9.96;61.81;99809.44;5074131;28;45442;-78
2023/01/11 11:41:08;;;;;;;;;8.50;5.75;;;;;9.99;61.59;99798.81;5089891;27;45481;-78
2023/01/11 11:43:39;;;;;;;;;11.00;9.00;;;;;9.99;61.36;99802.31;5073680;27;45496;-79
2023/01/11 11:46:26;;;;;;;;;10.50;10.50;;;;;10.02;61.36;99802.25;5074008;28;46304;-79
2023/01/11 11:49:19;;;;;;;;;8.00;8.00;;;;;10.04;61.45;99800.44;5089554;27;45422;-76
2023/01/11 11:51:46;;;;;;;;;10.50;9.25;;;;;10.07;61.11;99800.31;5072816;28;45518;-78
2023/01/11 11:54:23;;;;;;;;;10.75;8.75;;;;;10.03;61.49;99788.16;5073205;28;45413;-77
2023/01/11 11:56:48;;;;;;;;;13.50;12.00;;;;;10.08;61.67;99791.50;5059799;28;46524;-78
2023/01/11 11:59:20;;;;;;;;;13.25;12.50;;;;;10.05;61.75;99786.31;5074223;28;45374;-78
2023/01/11 12:01:53;;;;;;;;;16.00;14.00;;;;;10.02;62.35;99788.22;5074352;27;45493;-76
2023/01/11 12:04:35;;;;;;;;;20.00;14.33;;;;;9.93;61.92;99783.16;5071969;27;45501;-76
2023/01/11 12:07:07;;;;;;;;;16.67;16.00;;;;;9.89;63.20;99782.38;5073603;28;46224;-77
2023/01/11 12:09:35;;;;;;;;;21.00;18.67;;;;;9.83;63.43;99786.97;5089560;27;45483;-77
2023/01/11 12:12:01;;;;;;;;;22.67;22.00;;;;;9.77;64.19;99772.19;5073372;27;45420;-77
2023/01/11 12:14:33;;;;;;;;;25.67;22.33;;;;;9.73;64.77;99775.78;5073071;28;45312;-80
2023/01/11 12:17:14;;;;;;;;;19.67;19.00;;;;;9.68;64.86;99781.19;5073830;28;46380;-77